Terminal Aerodrome Forecast
Issued by NWS

Home | Current Version | Previous Version | Text Only | Print | Product List | Glossary Off
Versions: 1 2 3 4 5 6 7 8 9 10 11 12 13 14 15 16 17 18

000
FTUS43 KFGF 301100
TAFBJI
TAF
KBJI 301139Z 3012/0112 12013KT P6SM OVC007
     FM301900 13015G22KT P6SM BKN200
     FM010300 14016KT P6SM VCSH BKN025=

USA.gov is the U.S. government's official web portal to all federal, state and local government web resources and services.